TimeEDT,TemperatureF,Dew PointF,Humidity,Sea Level PressureIn,VisibilityMPH,Wind Direction,Wind SpeedMPH,Gust SpeedMPH,PrecipitationIn,Events,Conditions,WindDirDegrees,DateUTC
12:15 AM,46.4,39.2,76,29.75,10.0,Calm,Calm,-,N/A,,Overcast,0,2013-10-20 04:15:00
12:35 AM,48.2,39.2,71,29.75,10.0,Calm,Calm,-,N/A,,Overcast,0,2013-10-20 04:35:00
12:55 AM,48.2,39.2,71,29.75,10.0,SE,3.5,-,N/A,,Overcast,140,2013-10-20 04:55:00
1:15 AM,48.2,39.2,71,29.74,10.0,Calm,Calm,-,N/A,,Overcast,0,2013-10-20 05:15:00
1:35 AM,48.2,39.2,71,29.74,10.0,Calm,Calm,-,N/A,,Mostly Cloudy,0,2013-10-20 05:35:00
1:55 AM,48.2,39.2,71,29.74,10.0,SSE,4.6,-,N/A,,Overcast,160,2013-10-20 05:55:00
2:15 AM,46.4,39.2,76,29.73,10.0,SE,4.6,-,N/A,,Overcast,140,2013-10-20 06:15:00
2:35 AM,46.4,39.2,76,29.72,10.0,SSE,3.5,-,N/A,,Overcast,150,2013-10-20 06:35:00
2:55 AM,46.4,39.2,76,29.71,10.0,Calm,Calm,-,N/A,,Overcast,0,2013-10-20 06:55:00
3:15 AM,46.4,39.2,76,29.71,10.0,Calm,Calm,-,N/A,,Mostly Cloudy,0,2013-10-20 07:15:00
3:35 AM,46.4,39.2,76,29.70,10.0,Calm,Calm,-,N/A,,Mostly Cloudy,0,2013-10-20 07:35:00
3:55 AM,46.4,39.2,76,29.69,10.0,SE,5.8,-,N/A,,Overcast,140,2013-10-20 07:55:00
4:15 AM,46.4,39.2,76,29.68,10.0,SE,4.6,-,N/A,,Overcast,140,2013-10-20 08:15:00
4:35 AM,46.4,39.2,76,29.68,10.0,South,8.1,-,N/A,,Overcast,170,2013-10-20 08:35:00
4:55 AM,46.4,39.2,76,29.67,10.0,SSE,5.8,-,N/A,,Overcast,150,2013-10-20 08:55:00
5:15 AM,46.4,39.2,76,29.67,10.0,SSE,8.1,-,N/A,,Mostly Cloudy,150,2013-10-20 09:15:00
5:35 AM,46.4,39.2,76,29.66,10.0,SSE,8.1,-,N/A,,Overcast,150,2013-10-20 09:35:00
5:55 AM,46.4,39.2,76,29.66,10.0,South,5.8,-,N/A,,Overcast,170,2013-10-20 09:55:00
6:15 AM,46.4,39.2,76,29.65,8.0,SSE,9.2,-,0.01,,Overcast,150,2013-10-20 10:15:00
6:35 AM,44.6,41.0,87,29.65,6.0,SSE,6.9,-,0.03,,Overcast,150,2013-10-20 10:35:00
6:55 AM,44.6,41.0,87,29.65,5.0,SSE,6.9,-,0.07,,Overcast,150,2013-10-20 10:55:00
7:15 AM,44.6,41.0,87,29.64,5.0,SSE,6.9,-,0.01,,Mostly Cloudy,150,2013-10-20 11:15:00
7:35 AM,44.6,41.0,87,29.64,5.0,SSE,6.9,-,0.02,,Overcast,160,2013-10-20 11:35:00
7:55 AM,46.4,42.8,87,29.64,5.0,SSE,9.2,-,0.03,,Overcast,150,2013-10-20 11:55:00
8:15 AM,46.4,42.8,87,29.63,6.0,SE,8.1,-,N/A,,Overcast,140,2013-10-20 12:15:00
8:35 AM,46.4,42.8,87,29.63,7.0,SSE,9.2,-,N/A,,Overcast,160,2013-10-20 12:35:00
8:55 AM,46.4,42.8,87,29.63,8.0,SSE,8.1,-,N/A,,Overcast,160,2013-10-20 12:55:00
9:15 AM,46.4,42.8,87,29.63,6.0,SSE,9.2,-,N/A,,Overcast,150,2013-10-20 13:15:00
9:35 AM,48.2,44.6,87,29.62,7.0,SSE,6.9,-,0.01,,Overcast,160,2013-10-20 13:35:00
9:55 AM,48.2,44.6,87,29.62,8.0,South,6.9,-,0.01,,Overcast,170,2013-10-20 13:55:00
10:15 AM,50.0,44.6,82,29.62,10.0,South,10.4,-,N/A,,Overcast,170,2013-10-20 14:15:00
10:35 AM,50.0,44.6,82,29.62,10.0,South,6.9,-,N/A,,Overcast,190,2013-10-20 14:35:00
10:55 AM,48.2,44.6,87,29.62,10.0,SSW,8.1,-,N/A,,Overcast,200,2013-10-20 14:55:00
11:15 AM,48.2,42.8,82,29.63,9.0,SW,10.4,20.7,0.02,,Overcast,230,2013-10-20 15:15:00
11:35 AM,48.2,42.8,82,29.63,10.0,WSW,9.2,-,0.03,,Mostly Cloudy,240,2013-10-20 15:35:00
11:55 AM,48.2,42.8,82,29.63,10.0,WSW,9.2,-,0.03,,Overcast,250,2013-10-20 15:55:00
12:15 PM,48.2,41.0,76,29.62,10.0,WSW,8.1,-,N/A,,Overcast,240,2013-10-20 16:15:00
12:35 PM,51.8,42.8,71,29.62,10.0,West,15.0,18.4,N/A,,Mostly Cloudy,260,2013-10-20 16:35:00
12:55 PM,50.0,39.2,66,29.62,10.0,WSW,11.5,21.9,N/A,,Overcast,250,2013-10-20 16:55:00
1:15 PM,51.8,37.4,58,29.62,10.0,WSW,15.0,21.9,N/A,,Overcast,240,2013-10-20 17:15:00
1:35 PM,51.8,39.2,62,29.62,10.0,WSW,12.7,18.4,N/A,,Mostly Cloudy,240,2013-10-20 17:35:00
1:55 PM,53.6,37.4,54,29.62,10.0,WSW,10.4,19.6,N/A,,Mostly Cloudy,250,2013-10-20 17:55:00
2:15 PM,53.6,37.4,54,29.63,10.0,WSW,11.5,18.4,N/A,,Mostly Cloudy,250,2013-10-20 18:15:00
2:35 PM,53.6,37.4,54,29.63,10.0,West,12.7,20.7,N/A,,Overcast,270,2013-10-20 18:35:00
2:55 PM,51.8,37.4,58,29.64,10.0,West,8.1,-,N/A,,Overcast,280,2013-10-20 18:55:00
3:15 PM,51.8,37.4,58,29.64,10.0,WNW,4.6,-,N/A,,Overcast,300,2013-10-20 19:15:00
3:35 PM,51.8,37.4,58,29.64,10.0,NW,5.8,-,N/A,,Mostly Cloudy,310,2013-10-20 19:35:00
3:55 PM,51.8,35.6,54,29.64,10.0,West,11.5,16.1,N/A,,Mostly Cloudy,270,2013-10-20 19:55:00
4:15 PM,51.8,35.6,54,29.65,10.0,WNW,9.2,-,N/A,,Overcast,290,2013-10-20 20:15:00
4:35 PM,51.8,30.2,44,29.66,10.0,WSW,13.8,24.2,N/A,,Mostly Cloudy,250,2013-10-20 20:35:00
4:55 PM,51.8,30.2,44,29.67,10.0,West,13.8,19.6,N/A,,Scattered Clouds,270,2013-10-20 20:55:00
5:15 PM,50.0,30.2,47,29.67,10.0,West,13.8,17.3,N/A,,Scattered Clouds,260,2013-10-20 21:15:00
5:35 PM,48.2,30.2,50,29.68,10.0,West,11.5,17.3,N/A,,Mostly Cloudy,270,2013-10-20 21:35:00
5:55 PM,48.2,28.4,46,29.69,10.0,West,9.2,17.3,N/A,,Mostly Cloudy,260,2013-10-20 21:55:00
6:15 PM,48.2,28.4,46,29.70,10.0,WSW,8.1,-,N/A,,Clear,250,2013-10-20 22:15:00
6:35 PM,46.4,28.4,50,29.70,10.0,WSW,9.2,-,N/A,,Clear,250,2013-10-20 22:35:00
6:55 PM,46.4,28.4,50,29.71,10.0,WSW,10.4,-,N/A,,Partly Cloudy,250,2013-10-20 22:55:00
7:15 PM,46.4,28.4,50,29.71,10.0,WSW,9.2,-,N/A,,Mostly Cloudy,240,2013-10-20 23:15:00
7:35 PM,46.4,30.2,53,29.72,10.0,West,9.2,-,N/A,,Overcast,260,2013-10-20 23:35:00
7:55 PM,46.4,30.2,53,29.72,10.0,West,11.5,18.4,N/A,,Scattered Clouds,260,2013-10-20 23:55:00
8:15 PM,46.4,30.2,53,29.73,10.0,West,10.4,18.4,N/A,,Scattered Clouds,260,2013-10-21 00:15:00
8:35 PM,46.4,30.2,53,29.74,10.0,West,13.8,-,N/A,,Partly Cloudy,260,2013-10-21 00:35:00
8:55 PM,44.6,30.2,57,29.75,10.0,West,8.1,-,N/A,,Clear,260,2013-10-21 00:55:00
9:15 PM,44.6,30.2,57,29.76,10.0,West,11.5,20.7,N/A,,Clear,260,2013-10-21 01:15:00
9:35 PM,44.6,30.2,57,29.76,10.0,WSW,13.8,-,N/A,,Clear,250,2013-10-21 01:35:00
9:55 PM,44.6,30.2,57,29.76,10.0,West,13.8,20.7,N/A,,Clear,260,2013-10-21 01:55:00
10:15 PM,44.6,30.2,57,29.76,10.0,West,13.8,19.6,N/A,,Clear,260,2013-10-21 02:15:00
10:35 PM,44.6,30.2,57,29.77,10.0,West,10.4,17.3,N/A,,Clear,260,2013-10-21 02:35:00
10:55 PM,44.6,30.2,57,29.78,10.0,WSW,13.8,20.7,N/A,,Clear,250,2013-10-21 02:55:00
11:15 PM,44.6,30.2,57,29.78,10.0,WSW,13.8,17.3,N/A,,Mostly Cloudy,250,2013-10-21 03:15:00
11:35 PM,44.6,30.2,57,29.78,10.0,West,11.5,17.3,N/A,,Mostly Cloudy,270,2013-10-21 03:35:00
11:55 PM,42.8,30.2,61,29.78,10.0,West,10.4,-,N/A,,Mostly Cloudy,270,2013-10-21 03:55:00